Time;durP1;ratioP1;P1;durP2;ratioP2;P2;SDS_P1;SDS_P2;PMS_P1;PMS_P2;Temp;Humidity;BMP_temperature;BMP_pressure;BME280_temperature;BME280_humidity;BME280_pressure;Samples;Min_cycle;Max_cycle;Signal;HPM_P1;HPM_P2
2023/08/08 00:01:21;;;;;;;7.22;4.53;;;13.10;99.90;;;;;;5000888;28;20191;-81
2023/08/08 00:03:47;;;;;;;7.45;4.30;;;13.20;99.90;;;;;;5000046;28;20202;-81
2023/08/08 00:06:12;;;;;;;8.82;5.10;;;13.10;99.90;;;;;;5000494;28;20212;-81
2023/08/08 00:08:38;;;;;;;8.10;5.05;;;13.10;99.90;;;;;;5018179;28;20278;-81
2023/08/08 00:11:04;;;;;;;6.97;5.10;;;13.20;99.90;;;;;;5000694;28;20176;-81
2023/08/08 00:13:30;;;;;;;8.85;4.10;;;13.20;99.90;;;;;;5000743;28;20186;-81
2023/08/08 00:15:55;;;;;;;6.82;4.10;;;13.20;99.90;;;;;;5018212;28;20338;-81
2023/08/08 00:18:21;;;;;;;6.50;4.85;;;13.20;99.90;;;;;;5018310;28;20172;-81
2023/08/08 00:20:47;;;;;;;8.98;4.85;;;13.30;99.90;;;;;;5000379;28;20175;-81
2023/08/08 00:23:13;;;;;;;6.15;4.10;;;13.20;99.90;;;;;;5000616;28;20267;-81
2023/08/08 00:25:39;;;;;;;7.55;4.40;;;13.20;99.90;;;;;;5001029;28;20668;-82
2023/08/08 00:28:05;;;;;;;7.95;4.43;;;13.10;99.90;;;;;;5000748;28;20215;-81
2023/08/08 00:30:30;;;;;;;7.18;4.55;;;13.10;99.90;;;;;;5001664;28;20179;-82
2023/08/08 00:32:56;;;;;;;10.35;4.82;;;13.10;99.90;;;;;;5019686;28;20659;-81
2023/08/08 00:35:22;;;;;;;5.90;4.47;;;13.10;99.90;;;;;;5000342;28;20183;-81
2023/08/08 00:37:48;;;;;;;8.43;4.50;;;13.10;99.90;;;;;;5000269;28;20204;-81
2023/08/08 00:40:14;;;;;;;7.75;4.28;;;13.10;99.90;;;;;;5000731;28;20214;-81
2023/08/08 00:42:40;;;;;;;8.20;4.43;;;13.10;99.90;;;;;;4999807;28;20179;-81
2023/08/08 00:45:06;;;;;;;5.25;4.60;;;13.10;99.90;;;;;;5000313;28;20184;-81
2023/08/08 00:47:33;;;;;;;7.65;4.20;;;13.10;99.90;;;;;;4999950;28;20202;-81
2023/08/08 00:49:59;;;;;;;6.28;4.40;;;13.10;99.90;;;;;;5017455;28;20179;-81
2023/08/08 00:52:25;;;;;;;9.57;4.45;;;13.10;99.90;;;;;;5000154;28;20187;-81
2023/08/08 00:54:52;;;;;;;4.53;3.90;;;13.10;99.90;;;;;;5001400;28;20184;-81
2023/08/08 00:57:18;;;;;;;10.32;4.63;;;13.20;99.90;;;;;;5000445;28;20613;-81
2023/08/08 00:59:44;;;;;;;7.65;4.72;;;13.20;99.90;;;;;;5016793;28;20172;-81
2023/08/08 01:02:10;;;;;;;5.30;4.75;;;13.20;99.90;;;;;;4999002;28;20180;-81
2023/08/08 01:04:35;;;;;;;4.30;3.90;;;13.20;99.90;;;;;;4997692;28;20187;-81
2023/08/08 01:07:22;;;;;;;8.98;4.47;;;13.20;99.90;;;;;;4998254;28;20259;-81
2023/08/08 01:09:54;;;;;;;6.72;4.15;;;13.20;99.90;;;;;;4998157;28;20180;-81
2023/08/08 01:12:23;;;;;;;5.07;4.07;;;13.20;99.90;;;;;;4998430;28;20267;-81
2023/08/08 01:14:49;;;;;;;5.70;4.20;;;13.20;99.90;;;;;;4998309;28;20188;-81
2023/08/08 01:17:16;;;;;;;6.22;3.83;;;13.30;99.90;;;;;;4998946;28;20278;-81
2023/08/08 01:19:41;;;;;;;6.30;3.92;;;13.30;99.90;;;;;;4998177;28;20678;-81
2023/08/08 01:22:14;;;;;;;6.18;4.38;;;13.30;99.90;;;;;;4998419;28;20175;-82
2023/08/08 01:24:41;;;;;;;7.88;4.22;;;13.30;99.90;;;;;;5015221;28;20168;-81
2023/08/08 01:27:07;;;;;;;6.15;3.85;;;13.40;99.90;;;;;;4998588;28;20203;-82
2023/08/08 01:29:32;;;;;;;4.60;3.90;;;13.40;99.90;;;;;;5014888;28;20575;-81
2023/08/08 01:31:58;;;;;;;4.50;3.70;;;13.40;99.90;;;;;;4998563;28;20557;-81
2023/08/08 01:34:24;;;;;;;4.20;3.58;;;13.40;99.90;;;;;;4998450;28;20182;-81
2023/08/08 01:36:57;;;;;;;6.95;4.28;;;13.40;99.90;;;;;;4998465;28;20209;-81
2023/08/08 01:39:27;;;;;;;6.72;4.32;;;13.30;99.90;;;;;;5016864;28;20218;-82
2023/08/08 01:41:56;;;;;;;7.85;4.20;;;13.30;99.90;;;;;;5015360;28;20648;-82
2023/08/08 01:44:25;;;;;;;6.75;4.30;;;13.50;99.90;;;;;;4998848;28;20179;-82
2023/08/08 01:46:53;;;;;;;5.00;3.97;;;13.50;99.90;;;;;;4998634;28;20200;-82
2023/08/08 01:49:18;;;;;;;5.55;4.65;;;13.50;99.90;;;;;;4998088;28;20207;-81
2023/08/08 01:51:44;;;;;;;5.93;4.00;;;13.60;99.90;;;;;;5015923;28;20179;-81
2023/08/08 01:54:10;;;;;;;5.75;4.32;;;13.70;99.90;;;;;;5015677;28;20175;-82
2023/08/08 01:56:36;;;;;;;4.82;4.03;;;13.70;99.90;;;;;;4998300;28;20199;-82
2023/08/08 01:59:01;;;;;;;5.90;4.20;;;13.70;99.90;;;;;;4999031;28;20270;-82
2023/08/08 02:01:27;;;;;;;4.30;3.90;;;13.70;99.90;;;;;;4998298;28;20180;-82
2023/08/08 02:03:53;;;;;;;7.47;4.40;;;13.70;99.90;;;;;;4998453;28;20207;-81
2023/08/08 02:06:19;;;;;;;9.02;4.30;;;13.80;99.90;;;;;;4998402;28;20211;-82
2023/08/08 02:08:45;;;;;;;8.10;4.00;;;13.80;99.90;;;;;;5016268;28;20235;-82
2023/08/08 02:11:11;;;;;;;7.68;3.83;;;13.80;99.90;;;;;;4998224;28;20207;-82
2023/08/08 02:13:37;;;;;;;5.88;4.05;;;13.80;99.90;;;;;;5015594;28;20542;-82
2023/08/08 02:16:02;;;;;;;6.45;3.90;;;13.80;99.90;;;;;;4998049;28;20192;-82
2023/08/08 02:18:28;;;;;;;4.82;3.80;;;13.80;99.90;;;;;;5015961;28;20172;-81
2023/08/08 02:20:54;;;;;;;5.95;4.38;;;13.70;99.90;;;;;;5001511;28;20271;-82
2023/08/08 02:23:20;;;;;;;6.07;3.92;;;13.70;99.90;;;;;;5001794;28;20190;-82
2023/08/08 02:25:46;;;;;;;4.47;3.88;;;13.60;99.90;;;;;;5001795;28;20730;-82
2023/08/08 02:28:11;;;;;;;4.88;3.85;;;13.60;99.90;;;;;;5001707;28;20305;-82
2023/08/08 02:30:38;;;;;;;6.82;4.40;;;13.60;99.90;;;;;;5002617;28;20184;-82
2023/08/08 02:33:04;;;;;;;7.82;4.05;;;13.50;99.90;;;;;;5019697;28;20183;-82
2023/08/08 02:35:30;;;;;;;5.85;4.00;;;13.50;99.90;;;;;;5001606;28;20175;-81
2023/08/08 02:37:56;;;;;;;6.38;4.15;;;13.50;99.90;;;;;;5002006;28;20184;-83
2023/08/08 02:40:26;;;;;;;6.93;4.15;;;13.50;99.90;;;;;;5001567;28;20183;-82
2023/08/08 02:42:52;;;;;;;4.20;3.80;;;13.50;99.90;;;;;;5001387;28;20550;-82
2023/08/08 02:45:18;;;;;;;4.78;3.80;;;13.50;99.90;;;;;;5019361;28;20176;-82
2023/08/08 02:47:44;;;;;;;11.45;4.88;;;13.40;99.90;;;;;;5019227;28;20195;-82
2023/08/08 02:50:09;;;;;;;5.72;4.25;;;13.40;99.90;;;;;;5001840;28;20176;-82
2023/08/08 02:52:35;;;;;;;7.40;4.18;;;13.40;99.90;;;;;;5018198;28;20275;-82
2023/08/08 02:55:02;;;;;;;4.90;4.03;;;13.50;99.90;;;;;;5018646;28;20278;-82
2023/08/08 02:57:28;;;;;;;5.32;4.13;;;13.50;99.90;;;;;;5017709;28;20206;-81
2023/08/08 02:59:53;;;;;;;5.82;4.35;;;13.50;99.90;;;;;;5018896;28;20168;-82
2023/08/08 03:02:19;;;;;;;6.82;4.45;;;13.50;99.90;;;;;;5019293;28;20194;-82
2023/08/08 03:04:45;;;;;;;7.90;4.30;;;13.50;99.90;;;;;;5001423;28;20215;-81
2023/08/08 03:07:11;;;;;;;6.45;4.13;;;13.50;99.90;;;;;;5001244;28;20314;-82
2023/08/08 03:09:37;;;;;;;10.10;4.00;;;13.50;99.90;;;;;;5001648;28;20322;-82
2023/08/08 03:12:03;;;;;;;6.55;4.45;;;13.50;99.90;;;;;;5021737;28;20628;-82
2023/08/08 03:14:29;;;;;;;10.00;4.55;;;13.50;99.90;;;;;;5021907;28;20195;-82
2023/08/08 03:16:54;;;;;;;10.10;4.70;;;13.50;99.90;;;;;;5006184;28;20219;-81
2023/08/08 03:19:21;;;;;;;5.15;4.13;;;13.50;99.90;;;;;;5003792;28;20553;-81
2023/08/08 03:21:47;;;;;;;8.07;4.88;;;13.50;99.90;;;;;;5005145;28;20195;-81
2023/08/08 03:24:13;;;;;;;8.48;4.78;;;13.50;99.90;;;;;;5020693;28;20192;-80
2023/08/08 03:26:39;;;;;;;8.25;4.63;;;13.50;99.90;;;;;;5011720;28;20199;-81
2023/08/08 03:29:04;;;;;;;6.50;4.30;;;13.50;99.90;;;;;;5020592;28;20210;-81
2023/08/08 03:31:30;;;;;;;12.98;4.85;;;13.50;99.90;;;;;;5019082;28;20172;-81
2023/08/08 03:33:56;;;;;;;10.63;4.47;;;13.40;99.90;;;;;;5002011;28;20266;-81
2023/08/08 03:36:21;;;;;;;5.55;4.30;;;13.40;99.90;;;;;;5001381;28;20192;-81
2023/08/08 03:38:47;;;;;;;5.85;4.50;;;13.40;99.90;;;;;;5001446;28;20202;-82
2023/08/08 03:41:13;;;;;;;7.03;4.65;;;13.40;99.90;;;;;;5019258;28;20187;-80
2023/08/08 03:43:40;;;;;;;8.60;4.40;;;13.40;99.90;;;;;;5001839;28;20175;-81
2023/08/08 03:46:06;;;;;;;9.52;4.32;;;13.50;99.90;;;;;;5001457;28;20201;-81
2023/08/08 03:48:31;;;;;;;7.13;4.80;;;13.40;99.90;;;;;;5001210;28;20207;-81
2023/08/08 03:50:57;;;;;;;7.68;4.68;;;13.40;99.90;;;;;;5002777;28;20641;-81
2023/08/08 03:53:23;;;;;;;13.80;5.43;;;13.40;99.90;;;;;;5001456;28;20187;-81
2023/08/08 03:55:49;;;;;;;7.32;4.57;;;13.40;99.90;;;;;;5001572;28;20199;-81
2023/08/08 03:58:14;;;;;;;9.35;4.20;;;13.40;99.90;;;;;;5005102;28;20191;-81
2023/08/08 04:00:45;;;;;;;7.30;4.45;;;13.40;99.90;;;;;;5005597;28;20180;-81
2023/08/08 04:03:16;;;;;;;10.05;4.95;;;13.50;99.90;;;;;;5001689;28;20237;-81
2023/08/08 04:05:46;;;;;;;7.65;4.43;;;13.50;99.90;;;;;;5019898;28;20243;-82
2023/08/08 04:08:15;;;;;;;13.70;4.90;;;13.50;99.90;;;;;;5019893;28;20199;-82
2023/08/08 04:10:42;;;;;;;8.60;5.28;;;13.50;99.90;;;;;;5019365;28;20180;-83
2023/08/08 04:13:08;;;;;;;7.88;4.70;;;13.40;99.90;;;;;;5002018;28;20182;-82
2023/08/08 04:15:34;;;;;;;7.55;4.93;;;13.50;99.90;;;;;;5002203;28;20260;-83
2023/08/08 04:18:00;;;;;;;7.45;5.28;;;13.40;99.90;;;;;;5001746;28;20176;-81
2023/08/08 04:20:25;;;;;;;11.38;5.43;;;13.30;99.90;;;;;;5001761;28;20184;-81
2023/08/08 04:22:51;;;;;;;7.10;5.43;;;13.20;99.90;;;;;;5001813;28;20665;-82
2023/08/08 04:25:17;;;;;;;7.35;5.22;;;13.10;99.90;;;;;;5003033;28;20183;-82
2023/08/08 04:27:43;;;;;;;12.32;5.88;;;13.00;99.90;;;;;;5002320;28;20211;-82
2023/08/08 04:30:09;;;;;;;8.65;6.18;;;12.90;99.90;;;;;;5002584;28;20523;-82
2023/08/08 04:32:34;;;;;;;7.82;6.43;;;12.90;99.90;;;;;;5018785;28;20171;-82
2023/08/08 04:35:00;;;;;;;11.20;6.07;;;12.80;99.90;;;;;;5001031;28;20211;-82
2023/08/08 04:37:26;;;;;;;11.23;6.72;;;12.90;99.90;;;;;;5000889;28;20206;-83
2023/08/08 04:39:52;;;;;;;14.43;6.85;;;12.80;99.90;;;;;;5000790;28;20644;-82
2023/08/08 04:42:17;;;;;;;14.05;7.53;;;12.80;99.90;;;;;;5017067;28;20172;-82
2023/08/08 04:44:43;;;;;;;14.15;7.30;;;12.80;99.90;;;;;;5002146;28;20176;-82
2023/08/08 04:47:09;;;;;;;12.70;7.32;;;12.80;99.90;;;;;;5000457;28;20199;-82
2023/08/08 04:49:35;;;;;;;9.88;7.00;;;12.80;99.90;;;;;;5017238;28;20204;-82
2023/08/08 04:52:01;;;;;;;10.63;7.40;;;12.80;99.90;;;;;;5000474;28;20186;-83
2023/08/08 04:54:27;;;;;;;15.85;6.85;;;12.70;99.90;;;;;;5001339;28;20597;-82
2023/08/08 04:56:52;;;;;;;11.13;7.03;;;12.70;99.90;;;;;;5001631;28;20203;-82
2023/08/08 04:59:18;;;;;;;12.20;7.05;;;12.70;99.90;;;;;;5000388;28;20179;-81
2023/08/08 05:01:44;;;;;;;15.93;7.70;;;12.80;99.90;;;;;;5016505;28;20269;-82
2023/08/08 05:04:09;;;;;;;15.15;8.13;;;12.80;99.90;;;;;;4999514;28;20191;-82
2023/08/08 05:06:35;;;;;;;15.10;7.97;;;12.80;99.90;;;;;;4998398;28;20235;-82
2023/08/08 05:09:01;;;;;;;13.70;8.43;;;12.80;99.90;;;;;;4998881;28;20204;-81
2023/08/08 05:11:27;;;;;;;14.00;7.30;;;12.80;99.90;;;;;;5017257;28;20194;-82
2023/08/08 05:13:53;;;;;;;15.57;8.43;;;12.80;99.90;;;;;;4999573;28;20326;-82
2023/08/08 05:16:19;;;;;;;12.52;7.78;;;12.90;99.90;;;;;;4999533;28;20537;-82
2023/08/08 05:18:45;;;;;;;11.73;7.63;;;12.80;99.90;;;;;;4998482;28;20183;-82
2023/08/08 05:21:11;;;;;;;16.15;8.77;;;12.90;99.90;;;;;;4998301;28;20186;-82
2023/08/08 05:23:37;;;;;;;14.70;9.15;;;12.90;99.90;;;;;;4998526;28;20266;-83
2023/08/08 05:26:03;;;;;;;13.07;8.40;;;12.90;99.90;;;;;;4998216;28;20199;-82
2023/08/08 05:28:29;;;;;;;11.23;8.70;;;13.00;99.90;;;;;;4997869;28;20246;-82
2023/08/08 05:30:56;;;;;;;14.93;9.20;;;13.00;99.90;;;;;;5015356;28;20203;-82
2023/08/08 05:33:22;;;;;;;15.32;9.48;;;13.00;99.90;;;;;;5015768;28;20199;-82
2023/08/08 05:35:47;;;;;;;13.57;9.52;;;13.10;99.90;;;;;;4997627;28;20218;-82
2023/08/08 05:38:13;;;;;;;17.00;11.60;;;13.10;99.90;;;;;;4998057;28;20648;-82
2023/08/08 05:40:39;;;;;;;16.98;10.60;;;13.10;99.90;;;;;;5016783;28;20187;-83
2023/08/08 05:43:05;;;;;;;20.08;10.50;;;13.20;99.90;;;;;;5015010;28;20217;-82
2023/08/08 05:45:31;;;;;;;19.27;10.77;;;13.20;99.90;;;;;;5015603;28;20263;-82
2023/08/08 05:47:59;;;;;;;16.70;11.43;;;13.20;99.90;;;;;;5015092;28;20210;-82
2023/08/08 05:50:25;;;;;;;23.20;12.70;;;13.20;99.90;;;;;;5014109;28;20186;-82
2023/08/08 05:52:51;;;;;;;21.45;12.10;;;13.20;99.90;;;;;;5014087;28;20176;-82
2023/08/08 05:55:16;;;;;;;22.35;14.05;;;13.20;99.90;;;;;;5001987;28;20171;-82
2023/08/08 05:57:42;;;;;;;21.48;13.32;;;13.20;99.90;;;;;;5018926;28;20191;-82
2023/08/08 06:00:11;;;;;;;19.38;13.57;;;13.30;99.90;;;;;;5002808;28;20199;-82
2023/08/08 06:02:41;;;;;;;20.83;13.68;;;13.30;99.90;;;;;;5020808;28;20175;-83
2023/08/08 06:05:08;;;;;;;27.35;14.82;;;13.30;99.90;;;;;;5018946;28;20199;-82
2023/08/08 06:07:33;;;;;;;27.38;14.30;;;13.30;99.90;;;;;;5019077;28;20211;-82
2023/08/08 06:09:59;;;;;;;25.27;14.77;;;13.30;99.90;;;;;;5018865;28;20183;-81
2023/08/08 06:12:25;;;;;;;20.48;15.20;;;13.30;99.90;;;;;;5019155;28;20629;-81
2023/08/08 06:14:51;;;;;;;30.55;15.82;;;13.30;99.90;;;;;;5019385;28;20250;-81
2023/08/08 06:17:16;;;;;;;29.02;13.82;;;13.30;99.90;;;;;;5020454;28;20191;-81
2023/08/08 06:19:42;;;;;;;31.92;15.95;;;13.40;99.90;;;;;;5020894;28;20556;-81
2023/08/08 06:22:08;;;;;;;33.70;15.93;;;13.40;99.90;;;;;;5019495;28;20270;-82
2023/08/08 06:24:34;;;;;;;23.13;15.40;;;13.40;99.90;;;;;;5020348;28;20179;-82
2023/08/08 06:27:00;;;;;;;25.95;16.63;;;13.40;99.90;;;;;;5025500;28;20710;-81
2023/08/08 06:29:25;;;;;;;27.10;17.75;;;13.50;99.90;;;;;;5027748;28;20203;-81
2023/08/08 06:31:51;;;;;;;30.98;17.02;;;13.50;99.90;;;;;;5026743;28;20180;-81
2023/08/08 06:34:17;;;;;;;31.48;16.80;;;13.50;99.90;;;;;;5027952;28;20187;-81
2023/08/08 06:36:43;;;;;;;29.50;17.77;;;13.60;99.90;;;;;;5033527;28;20208;-81
2023/08/08 06:39:09;;;;;;;25.70;15.55;;;13.70;99.90;;;;;;5035576;28;20577;-81
2023/08/08 06:41:34;;;;;;;26.38;17.02;;;13.70;99.90;;;;;;5031777;28;20206;-81
2023/08/08 06:44:00;;;;;;;25.38;16.77;;;13.80;99.90;;;;;;5014163;28;20652;-82
2023/08/08 06:46:26;;;;;;;25.13;16.38;;;13.80;99.90;;;;;;5031216;28;20668;-82
2023/08/08 06:48:56;;;;;;;30.67;16.10;;;13.90;99.90;;;;;;5029845;28;20203;-82
2023/08/08 06:51:22;;;;;;;22.75;16.02;;;13.90;99.90;;;;;;5030178;28;20207;-81
2023/08/08 06:53:47;;;;;;;23.55;17.05;;;13.90;99.90;;;;;;5030610;28;20171;-82
2023/08/08 06:56:13;;;;;;;28.02;18.58;;;14.00;99.90;;;;;;5030915;28;20188;-82
2023/08/08 06:58:39;;;;;;;28.00;17.20;;;13.90;99.90;;;;;;5013329;28;20209;-82
2023/08/08 07:01:05;;;;;;;30.77;17.58;;;14.00;99.90;;;;;;5024057;28;20184;-81
2023/08/08 07:03:31;;;;;;;29.75;17.02;;;14.10;99.90;;;;;;5020253;28;20180;-81
2023/08/08 07:05:56;;;;;;;32.10;16.85;;;14.10;99.90;;;;;;5018252;28;20210;-81
2023/08/08 07:08:23;;;;;;;26.08;15.52;;;14.20;99.90;;;;;;5018538;28;20579;-81
2023/08/08 07:10:49;;;;;;;24.83;15.35;;;14.20;99.90;;;;;;5019428;28;20594;-81
2023/08/08 07:13:15;;;;;;;24.88;16.75;;;14.10;99.90;;;;;;5019773;28;20211;-81
2023/08/08 07:15:41;;;;;;;29.15;15.50;;;14.20;99.90;;;;;;5003989;28;20172;-81
2023/08/08 07:18:07;;;;;;;23.45;14.55;;;14.20;99.90;;;;;;5020404;28;20179;-81
2023/08/08 07:20:33;;;;;;;24.33;15.18;;;14.30;99.90;;;;;;5002623;28;20275;-81
2023/08/08 07:23:00;;;;;;;24.70;14.75;;;14.40;99.90;;;;;;5020004;28;20184;-81
2023/08/08 07:25:26;;;;;;;31.02;15.05;;;14.40;99.90;;;;;;5019600;28;20209;-81
2023/08/08 07:27:51;;;;;;;27.95;15.05;;;14.40;99.90;;;;;;5021193;28;20584;-81
2023/08/08 07:30:17;;;;;;;21.25;14.95;;;14.40;99.90;;;;;;5019580;28;20176;-81
2023/08/08 07:32:43;;;;;;;19.90;14.32;;;14.30;99.90;;;;;;5020818;28;20175;-80
2023/08/08 07:35:10;;;;;;;23.70;13.65;;;14.40;99.90;;;;;;5019998;28;20176;-81
2023/08/08 07:37:36;;;;;;;23.45;14.38;;;14.40;99.90;;;;;;5023689;28;20243;-81
2023/08/08 07:40:02;;;;;;;25.23;14.07;;;14.40;99.90;;;;;;5023959;28;20187;-81
2023/08/08 07:42:27;;;;;;;26.33;14.63;;;14.50;99.90;;;;;;5023769;28;20176;-80
2023/08/08 07:44:54;;;;;;;22.08;14.23;;;14.50;99.90;;;;;;5022954;28;20189;-79
2023/08/08 07:47:20;;;;;;;23.77;13.77;;;14.60;99.90;;;;;;5023513;28;20204;-81
2023/08/08 07:49:45;;;;;;;19.35;14.48;;;14.60;99.90;;;;;;5023895;28;20227;-80
2023/08/08 07:52:11;;;;;;;21.83;12.52;;;14.70;99.90;;;;;;5024460;28;20178;-80
2023/08/08 07:54:37;;;;;;;22.92;13.55;;;15.00;99.90;;;;;;5025032;28;20183;-80
2023/08/08 07:57:03;;;;;;;30.83;13.18;;;15.30;99.90;;;;;;5023505;28;20222;-81
2023/08/08 07:59:30;;;;;;;18.05;11.95;;;15.50;99.90;;;;;;5022133;28;20179;-81
2023/08/08 08:01:56;;;;;;;18.45;11.48;;;15.70;99.90;;;;;;5024613;28;20599;-81
2023/08/08 08:04:21;;;;;;;21.38;12.15;;;15.80;99.90;;;;;;5023892;28;20188;-82
2023/08/08 08:06:47;;;;;;;21.83;11.13;;;15.60;99.90;;;;;;5022068;28;20210;-82
2023/08/08 08:09:13;;;;;;;17.65;10.85;;;15.60;99.90;;;;;;5021457;28;20195;-83
2023/08/08 08:11:39;;;;;;;18.35;11.10;;;15.60;99.90;;;;;;5003337;28;20267;-81
2023/08/08 08:14:04;;;;;;;15.73;9.50;;;15.60;99.90;;;;;;5002269;28;20262;-81
2023/08/08 08:16:31;;;;;;;12.65;9.35;;;15.80;99.90;;;;;;5003134;28;20258;-82
2023/08/08 08:18:57;;;;;;;18.05;10.60;;;16.00;99.90;;;;;;5000761;28;20184;-80
2023/08/08 08:21:22;;;;;;;18.55;10.15;;;16.00;99.90;;;;;;4999863;28;20190;-80
2023/08/08 08:23:48;;;;;;;16.40;9.30;;;16.00;99.90;;;;;;5000072;28;20183;-81
2023/08/08 08:26:14;;;;;;;13.35;8.77;;;16.20;99.90;;;;;;4999404;28;20203;-81
2023/08/08 08:28:40;;;;;;;16.45;8.75;;;16.30;99.90;;;;;;5015153;28;20207;-81
2023/08/08 08:31:07;;;;;;;14.68;8.00;;;16.50;99.90;;;;;;5017158;28;20176;-82
2023/08/08 08:33:32;;;;;;;14.82;8.25;;;16.70;99.90;;;;;;4999462;28;20168;-81
2023/08/08 08:35:58;;;;;;;19.17;8.40;;;16.90;99.90;;;;;;5015346;28;20222;-82
2023/08/08 08:38:24;;;;;;;12.55;7.43;;;17.20;99.90;;;;;;4999364;28;20246;-80
2023/08/08 08:40:53;;;;;;;15.82;7.28;;;17.40;99.90;;;;;;5000046;28;20179;-81
2023/08/08 08:43:19;;;;;;;17.13;6.90;;;17.50;99.90;;;;;;5015576;28;20183;-83
2023/08/08 08:45:53;;;;;;;15.80;6.82;;;17.60;99.90;;;;;;5019665;28;20187;-85
2023/08/08 08:48:21;;;;;;;14.77;7.07;;;17.50;99.90;;;;;;5002229;28;20195;-85
2023/08/08 08:50:49;;;;;;;14.43;7.05;;;17.50;99.90;;;;;;5003340;28;20176;-86
2023/08/08 08:53:15;;;;;;;11.57;6.25;;;17.70;99.90;;;;;;5019975;28;20174;-83
2023/08/08 08:55:41;;;;;;;10.60;6.40;;;17.50;99.90;;;;;;5019431;28;20184;-83
2023/08/08 08:58:07;;;;;;;15.20;6.35;;;17.50;99.90;;;;;;5001922;28;20187;-84
2023/08/08 09:00:34;;;;;;;11.00;6.03;;;17.40;99.90;;;;;;5001901;28;20172;-84
2023/08/08 09:03:01;;;;;;;9.90;6.00;;;17.30;99.90;;;;;;5002450;28;20179;-83
2023/08/08 09:05:27;;;;;;;12.18;5.20;;;17.40;99.90;;;;;;5000489;28;20330;-83
2023/08/08 09:07:53;;;;;;;10.20;5.32;;;17.80;99.90;;;;;;5000578;28;20198;-84
2023/08/08 09:10:19;;;;;;;14.13;5.07;;;18.00;99.90;;;;;;5002175;28;20172;-83
2023/08/08 09:12:45;;;;;;;12.23;5.38;;;18.50;99.90;;;;;;5021461;28;20172;-83
2023/08/08 09:15:12;;;;;;;9.93;4.93;;;18.20;99.90;;;;;;5003178;28;20180;-81
2023/08/08 09:17:43;;;;;;;7.57;4.90;;;18.30;27.60;;;;;;4999835;28;20196;-82
2023/08/08 09:20:10;;;;;;;9.43;5.60;;;18.30;1.00;;;;;;4999479;28;20644;-82
2023/08/08 09:22:37;;;;;;;8.40;4.60;;;18.20;1.00;;;;;;5018397;28;20239;-83
2023/08/08 09:25:04;;;;;;;8.30;4.50;;;18.20;22.10;;;;;;5001134;28;20179;-83
2023/08/08 09:27:30;;;;;;;7.78;4.00;;;18.30;48.80;;;;;;5018184;28;20211;-83
2023/08/08 09:29:56;;;;;;;10.82;4.07;;;18.10;1.00;;;;;;5016839;28;20287;-84
2023/08/08 09:32:22;;;;;;;6.70;4.18;;;18.30;1.00;;;;;;5000341;28;20180;-83
2023/08/08 09:34:48;;;;;;;9.82;3.95;;;18.30;1.00;;;;;;4999935;28;20184;-83
2023/08/08 09:37:14;;;;;;;8.27;4.30;;;18.20;99.90;;;;;;4999805;28;20226;-83
2023/08/08 09:39:40;;;;;;;12.43;4.22;;;17.80;18.90;;;;;;4998823;28;20186;-82
2023/08/08 09:42:11;;;;;;;8.55;4.10;;;17.70;99.90;;;;;;5017719;28;20238;-82
2023/08/08 09:44:37;;;;;;;8.40;4.30;;;17.70;94.70;;;;;;4998057;28;20182;-83
2023/08/08 09:47:02;;;;;;;9.55;4.28;;;17.80;37.70;;;;;;5016170;28;20200;-82
2023/08/08 09:49:29;;;;;;;7.15;5.00;;;18.20;1.00;;;;;;5003326;28;20203;-81
2023/08/08 09:51:55;;;;;;;6.47;3.58;;;18.40;1.00;;;;;;5019245;28;20671;-82
2023/08/08 09:54:22;;;;;;;11.93;3.50;;;18.50;1.00;;;;;;5004488;28;20238;-82
2023/08/08 09:56:49;;;;;;;9.43;3.70;;;18.30;1.00;;;;;;5008156;28;20199;-83
2023/08/08 09:59:18;;;;;;;8.15;3.90;;;18.00;1.00;;;;;;5012981;28;20706;-84
2023/08/08 10:01:46;;;;;;;8.80;3.83;;;17.70;1.00;;;;;;5012058;28;20175;-83
2023/08/08 10:04:13;;;;;;;8.43;3.53;;;17.70;1.00;;;;;;5007871;28;20176;-83
2023/08/08 10:06:39;;;;;;;7.95;3.88;;;17.70;1.00;;;;;;5010467;28;20204;-82
2023/08/08 10:09:04;;;;;;;6.95;3.85;;;17.70;1.00;;;;;;5025038;28;20211;-82
2023/08/08 10:11:32;;;;;;;11.32;3.33;;;17.80;1.00;;;;;;5008702;28;20635;-84
2023/08/08 10:14:01;;;;;;;10.82;3.90;;;18.00;1.00;;;;;;5003052;28;20176;-83
2023/08/08 10:16:26;;;;;;;6.95;3.50;;;18.10;1.00;;;;;;5020056;28;20687;-81
2023/08/08 10:19:00;;;;;;;5.45;3.28;;;18.40;1.00;;;;;;5020376;28;20175;-80
2023/08/08 10:21:26;;;;;;;5.32;3.42;;;18.60;99.90;;;;;;5017347;28;20247;-80
2023/08/08 10:24:09;;;;;;;7.00;3.28;;;18.70;99.90;;;;;;5020188;28;20718;-81
2023/08/08 10:26:59;;;;;;;6.80;3.40;;;19.10;1.00;;;;;;5002198;28;20204;-80
2023/08/08 10:29:26;;;;;;;7.32;3.42;;;19.20;1.00;;;;;;5016375;28;20213;-79
2023/08/08 10:31:54;;;;;;;9.13;3.08;;;19.40;1.00;;;;;;4998542;28;20184;-80
2023/08/08 10:34:43;;;;;;;8.57;3.28;;;19.50;31.30;;;;;;4998990;28;20210;-80
2023/08/08 10:37:18;;;;;;;9.80;3.75;;;19.50;1.00;;;;;;4998513;28;20313;-79
2023/08/08 10:39:59;;;;;;;6.32;3.05;;;19.10;99.90;;;;;;5015304;28;20179;-78
2023/08/08 10:42:27;;;;;;;7.03;3.50;;;19.00;99.90;;;;;;5001610;28;20273;-80
2023/08/08 10:44:56;;;;;;;6.25;3.60;;;18.70;99.90;;;;;;5000706;28;20644;-80
2023/08/08 10:47:40;;;;;;;6.65;3.30;;;18.40;1.00;;;;;;5001148;28;20236;-80
2023/08/08 10:50:09;;;;;;;7.28;3.67;;;18.10;1.00;;;;;;5019207;28;20200;-81
2023/08/08 10:52:55;;;;;;;7.55;3.90;;;17.90;1.00;;;;;;5002286;28;20176;-80
2023/08/08 10:55:32;;;;;;;5.15;3.47;;;17.60;1.00;;;;;;5018593;28;20175;-80
2023/08/08 10:58:15;;;;;;;6.75;4.22;;;17.40;1.00;;;;;;5020364;28;20210;-80
2023/08/08 11:00:42;;;;;;;6.10;3.70;;;17.40;1.00;;;;;;5019989;28;20629;-81
2023/08/08 11:03:08;;;;;;;8.27;3.75;;;17.40;1.00;;;;;;5001183;28;20180;-80
2023/08/08 11:05:36;;;;;;;7.68;3.85;;;17.50;1.00;;;;;;5000955;28;20549;-80
2023/08/08 11:08:04;;;;;;;8.13;3.60;;;17.60;1.00;;;;;;5001687;28;20229;-80
2023/08/08 11:10:35;;;;;;;6.30;3.78;;;17.60;1.00;;;;;;5002511;28;20176;-80
2023/08/08 11:13:05;;;;;;;8.52;3.53;;;17.50;1.00;;;;;;5019543;28;20695;-80
2023/08/08 11:15:35;;;;;;;5.43;3.88;;;17.40;99.90;;;;;;5001523;28;20172;-80
2023/08/08 11:18:02;;;;;;;8.48;3.88;;;17.40;1.00;;;;;;5018766;28;20675;-80
2023/08/08 11:20:33;;;;;;;8.93;4.13;;;17.30;1.00;;;;;;5019374;28;20184;-80
2023/08/08 11:22:59;;;;;;;10.45;3.90;;;17.20;1.00;;;;;;5017923;28;20521;-80
2023/08/08 11:25:26;;;;;;;6.45;3.28;;;17.20;1.00;;;;;;5001484;28;20234;-80
2023/08/08 11:27:53;;;;;;;10.35;3.97;;;17.10;1.00;;;;;;5001855;28;20584;-80
2023/08/08 11:30:19;;;;;;;7.57;3.95;;;17.10;1.00;;;;;;5020217;28;20187;-80
2023/08/08 11:32:46;;;;;;;5.80;3.80;;;16.90;15.60;;;;;;5003523;28;20186;-80
2023/08/08 11:35:15;;;;;;;8.93;3.97;;;16.80;52.30;;;;;;5021332;28;20179;-80
2023/08/08 11:37:41;;;;;;;6.25;3.67;;;16.70;44.60;;;;;;5019153;28;20230;-80
2023/08/08 11:40:08;;;;;;;9.27;4.20;;;16.80;93.40;;;;;;5002503;28;20184;-80
2023/08/08 11:42:35;;;;;;;6.55;4.20;;;16.80;61.20;;;;;;5002922;28;20187;-80
2023/08/08 11:45:01;;;;;;;9.77;3.88;;;16.90;93.80;;;;;;5003659;28;20188;-80
2023/08/08 11:47:28;;;;;;;9.88;3.90;;;17.10;29.80;;;;;;5003097;28;20570;-80
2023/08/08 11:49:53;;;;;;;9.45;3.78;;;17.50;20.70;;;;;;5002639;28;20200;-81
2023/08/08 11:52:19;;;;;;;6.05;3.15;;;17.80;1.00;;;;;;5002168;28;20186;-80
2023/08/08 11:54:52;;;;;;;5.15;3.72;;;18.00;1.00;;;;;;5023010;28;20172;-80
2023/08/08 11:57:17;;;;;;;9.73;3.70;;;17.80;1.00;;;;;;5021476;28;20215;-80
2023/08/08 11:59:43;;;;;;;5.80;3.80;;;17.70;1.00;;;;;;5022848;28;20183;-81
2023/08/08 12:02:10;;;;;;;7.30;3.80;;;17.70;1.00;;;;;;5002787;28;20663;-80
2023/08/08 12:04:35;;;;;;;7.10;3.92;;;17.70;1.00;;;;;;5004926;28;20274;-81
2023/08/08 12:07:03;;;;;;;9.98;4.05;;;17.70;1.00;;;;;;5019997;28;20235;-81
2023/08/08 12:09:32;;;;;;;5.70;3.30;;;17.70;1.00;;;;;;5002613;28;20290;-80
2023/08/08 12:12:02;;;;;;;7.43;3.90;;;17.60;1.00;;;;;;4999157;28;20204;-79
2023/08/08 12:14:28;;;;;;;7.32;3.97;;;17.50;1.00;;;;;;5015143;28;20183;-80
2023/08/08 12:16:55;;;;;;;9.93;3.35;;;17.30;1.00;;;;;;4998585;28;20226;-80
2023/08/08 12:19:24;;;;;;;8.98;3.80;;;17.40;1.00;;;;;;5015145;28;20580;-80
2023/08/08 12:21:53;;;;;;;5.40;3.53;;;17.60;1.00;;;;;;4998912;28;20183;-80
2023/08/08 12:24:19;;;;;;;6.22;3.70;;;18.40;1.00;;;;;;5016653;28;20593;-80
2023/08/08 12:26:45;;;;;;;8.00;3.85;;;18.90;1.00;;;;;;5017096;28;20195;-80
2023/08/08 12:29:11;;;;;;;10.18;3.92;;;19.00;1.00;;;;;;4998558;28;20215;-80
2023/08/08 12:31:38;;;;;;;6.60;3.85;;;18.90;1.00;;;;;;4998598;28;20208;-80
2023/08/08 12:34:04;;;;;;;7.03;3.70;;;19.00;1.00;;;;;;5016145;28;20176;-80
2023/08/08 12:36:30;;;;;;;6.60;3.88;;;19.00;1.00;;;;;;4998154;28;20653;-80
2023/08/08 12:38:56;;;;;;;7.88;3.40;;;18.90;1.00;;;;;;4998888;28;20215;-80
2023/08/08 12:41:24;;;;;;;6.72;3.40;;;18.90;99.90;;;;;;4998106;28;20187;-79